Time;durP1;ratioP1;P1;durP2;ratioP2;P2;SDS_P1;SDS_P2;PMS_P1;PMS_P2;Temp;Humidity;BMP_temperature;BMP_pressure;BME280_temperature;BME280_humidity;BME280_pressure;Samples;Min_cycle;Max_cycle;Signal;HPM_P1;HPM_P2
2022/04/11 00:01:16;;;;;;;4.05;1.63;;;;;;;;;;5047935;28;20044;-55
2022/04/11 00:03:42;;;;;;;4.65;1.77;;;;;;;;;;5041148;28;21082;-57
2022/04/11 00:06:08;;;;;;;5.72;1.85;;;;;;;;;;5044413;28;20087;-58
2022/04/11 00:08:34;;;;;;;3.92;1.50;;;;;;;;;;5047094;28;20028;-55
2022/04/11 00:11:00;;;;;;;4.65;1.73;;;;;;;;;;5047873;28;20551;-53
2022/04/11 00:13:26;;;;;;;4.85;1.55;;;;;;;;;;5049349;28;20539;-57
2022/04/11 00:15:52;;;;;;;5.50;1.88;;;;;;;;;;5051359;28;20104;-55
2022/04/11 00:18:19;;;;;;;3.63;1.63;;;;;;;;;;5046637;28;20124;-57
2022/04/11 00:20:47;;;;;;;2.88;1.30;;;;;;;;;;5050935;28;20434;-55
2022/04/11 00:23:13;;;;;;;7.40;2.00;;;;;;;;;;5051038;28;20055;-55
2022/04/11 00:25:39;;;;;;;4.97;1.75;;;;;;;;;;5050681;28;20060;-56
2022/04/11 00:28:05;;;;;;;2.78;1.40;;;;;;;;;;5050310;28;20487;-58
2022/04/11 00:30:32;;;;;;;4.65;1.50;;;;;;;;;;5050015;28;20124;-54
2022/04/11 00:32:58;;;;;;;4.68;1.60;;;;;;;;;;5050850;28;20044;-57
2022/04/11 00:35:24;;;;;;;4.75;1.98;;;;;;;;;;5050379;28;20029;-57
2022/04/11 00:37:50;;;;;;;6.22;2.13;;;;;;;;;;5050418;28;20044;-56
2022/04/11 00:40:17;;;;;;;6.63;1.95;;;;;;;;;;5050303;28;20075;-57
2022/04/11 00:42:43;;;;;;;3.20;1.45;;;;;;;;;;5050350;28;20515;-54
2022/04/11 00:45:09;;;;;;;3.70;1.38;;;;;;;;;;5043979;28;20028;-57
2022/04/11 00:47:35;;;;;;;4.70;1.83;;;;;;;;;;5050378;28;20040;-56
2022/04/11 00:50:08;;;;;;;4.15;1.60;;;;;;;;;;5050181;28;20020;-55
2022/04/11 00:52:36;;;;;;;4.18;1.63;;;;;;;;;;5050203;28;20124;-59
2022/04/11 00:55:03;;;;;;;6.35;1.70;;;;;;;;;;5050509;28;20017;-56
2022/04/11 00:57:29;;;;;;;5.30;2.08;;;;;;;;;;5037479;28;20128;-57
2022/04/11 00:59:55;;;;;;;5.57;1.80;;;;;;;;;;5037883;28;20088;-56
2022/04/11 01:02:21;;;;;;;3.97;1.60;;;;;;;;;;5048760;28;20033;-57
2022/04/11 01:04:47;;;;;;;5.05;1.98;;;;;;;;;;5050265;28;20485;-55
2022/04/11 01:07:13;;;;;;;6.70;1.88;;;;;;;;;;5049861;28;20112;-53
2022/04/11 01:09:40;;;;;;;4.05;1.63;;;;;;;;;;5049906;28;20120;-54
2022/04/11 01:12:06;;;;;;;4.95;1.80;;;;;;;;;;5048441;28;20058;-56
2022/04/11 01:14:34;;;;;;;3.95;1.67;;;;;;;;;;5049335;28;20082;-53
2022/04/11 01:17:01;;;;;;;4.13;1.77;;;;;;;;;;5042841;28;20029;-57
2022/04/11 01:19:27;;;;;;;4.30;1.60;;;;;;;;;;5049610;28;20769;-55
2022/04/11 01:21:53;;;;;;;4.18;1.55;;;;;;;;;;5049847;28;20570;-54
2022/04/11 01:24:23;;;;;;;4.60;1.88;;;;;;;;;;5049579;28;20029;-52
2022/04/11 01:26:49;;;;;;;;;;;;;;;;;;5042818;28;20124;-54
2022/04/11 01:29:16;;;;;;;3.80;1.55;;;;;;;;;;5049232;28;19995;-55
2022/04/11 01:31:42;;;;;;;3.45;1.42;;;;;;;;;;5048809;28;20179;-56
2022/04/11 01:34:08;;;;;;;4.63;1.83;;;;;;;;;;5049680;28;20107;-51
2022/04/11 01:36:34;;;;;;;4.40;2.25;;;;;;;;;;5049435;28;20432;-53
2022/04/11 01:39:00;;;;;;;3.05;1.63;;;;;;;;;;5049089;28;20029;-53
2022/04/11 01:41:27;;;;;;;5.63;1.70;;;;;;;;;;5046921;28;20029;-56
2022/04/11 01:43:53;;;;;;;4.63;1.50;;;;;;;;;;5049372;28;20032;-57
2022/04/11 01:46:19;;;;;;;3.45;1.48;;;;;;;;;;5049218;28;20040;-57
2022/04/11 01:48:45;;;;;;;3.35;1.65;;;;;;;;;;5049142;28;20028;-57
2022/04/11 01:51:13;;;;;;;4.53;1.65;;;;;;;;;;5049528;28;20051;-57
2022/04/11 01:53:39;;;;;;;3.90;1.77;;;;;;;;;;5049468;28;20498;-55
2022/04/11 01:56:06;;;;;;;5.50;1.80;;;;;;;;;;5049268;28;20045;-57
2022/04/11 01:58:32;;;;;;;4.15;1.70;;;;;;;;;;5049906;28;20143;-56
2022/04/11 02:00:59;;;;;;;4.22;1.67;;;;;;;;;;5050244;28;20100;-55
2022/04/11 02:03:26;;;;;;;5.20;2.20;;;;;;;;;;5049864;28;20029;-57
2022/04/11 02:05:52;;;;;;;3.35;1.35;;;;;;;;;;5049989;28;20035;-56
2022/04/11 02:08:18;;;;;;;3.38;1.50;;;;;;;;;;5049882;28;20044;-56
2022/04/11 02:10:44;;;;;;;5.20;2.10;;;;;;;;;;5036798;28;20035;-55
2022/04/11 02:13:10;;;;;;;3.45;1.70;;;;;;;;;;5039395;28;20060;-56
2022/04/11 02:15:36;;;;;;;4.70;1.77;;;;;;;;;;5049251;28;20056;-56
2022/04/11 02:18:03;;;;;;;3.88;1.40;;;;;;;;;;5049101;28;20079;-53
2022/04/11 02:20:29;;;;;;;3.55;1.60;;;;;;;;;;5048670;28;20899;-58
2022/04/11 02:22:56;;;;;;;3.45;1.70;;;;;;;;;;5048549;28;20021;-56
2022/04/11 02:25:24;;;;;;;4.07;1.55;;;;;;;;;;5040845;28;20428;-55
2022/04/11 02:27:51;;;;;;;3.55;1.52;;;;;;;;;;5035641;28;20041;-57
2022/04/11 02:30:18;;;;;;;4.25;1.50;;;;;;;;;;5048781;28;20128;-54
2022/04/11 02:32:45;;;;;;;4.50;1.77;;;;;;;;;;5048798;28;20028;-58
2022/04/11 02:35:12;;;;;;;3.70;1.58;;;;;;;;;;5048466;28;20108;-56
2022/04/11 02:37:38;;;;;;;4.47;2.20;;;;;;;;;;5048154;28;20130;-57
2022/04/11 02:40:05;;;;;;;4.72;1.60;;;;;;;;;;5048174;28;20044;-56
2022/04/11 02:42:31;;;;;;;4.85;1.80;;;;;;;;;;5047389;28;20457;-56
2022/04/11 02:44:57;;;;;;;4.85;1.83;;;;;;;;;;5047214;28;20021;-55
2022/04/11 02:47:23;;;;;;;4.57;1.73;;;;;;;;;;5047240;28;20032;-58
2022/04/11 02:49:49;;;;;;;4.20;1.77;;;;;;;;;;5046945;28;20033;-56
2022/04/11 02:52:16;;;;;;;4.05;1.80;;;;;;;;;;5047455;28;20048;-58
2022/04/11 02:54:43;;;;;;;6.28;1.90;;;;;;;;;;5047562;28;20552;-58
2022/04/11 02:57:09;;;;;;;4.40;2.10;;;;;;;;;;5030197;28;20052;-56
2022/04/11 02:59:35;;;;;;;3.65;1.63;;;;;;;;;;5041480;28;20465;-57
2022/04/11 03:02:02;;;;;;;4.95;2.13;;;;;;;;;;5032804;28;20547;-56
2022/04/11 03:04:28;;;;;;;5.25;1.92;;;;;;;;;;5039911;28;20021;-57
2022/04/11 03:06:54;;;;;;;3.85;2.10;;;;;;;;;;5049242;28;20032;-56
2022/04/11 03:09:20;;;;;;;3.60;1.75;;;;;;;;;;5047058;28;20163;-57
2022/04/11 03:11:46;;;;;;;3.25;1.50;;;;;;;;;;5048528;28;20551;-55
2022/04/11 03:14:12;;;;;;;4.68;2.00;;;;;;;;;;5049097;28;20111;-59
2022/04/11 03:16:40;;;;;;;5.28;2.13;;;;;;;;;;5048538;28;20554;-56
2022/04/11 03:19:06;;;;;;;5.45;2.25;;;;;;;;;;5048933;28;20041;-55
2022/04/11 03:21:32;;;;;;;4.40;2.10;;;;;;;;;;5048737;28;20534;-57
2022/04/11 03:23:58;;;;;;;5.35;2.00;;;;;;;;;;5047791;28;20025;-58
2022/04/11 03:26:24;;;;;;;4.90;2.15;;;;;;;;;;5048447;28;20546;-57
2022/04/11 03:28:50;;;;;;;4.57;1.58;;;;;;;;;;5048627;28;20662;-56
2022/04/11 03:31:17;;;;;;;3.85;1.90;;;;;;;;;;5048033;28;20135;-57
2022/04/11 03:33:43;;;;;;;3.63;1.50;;;;;;;;;;5048751;28;20118;-57
2022/04/11 03:36:09;;;;;;;3.85;1.60;;;;;;;;;;5047569;28;20116;-58
2022/04/11 03:38:36;;;;;;;4.38;1.63;;;;;;;;;;5042593;28;20438;-58
2022/04/11 03:41:02;;;;;;;4.22;1.58;;;;;;;;;;5042751;28;20023;-56
2022/04/11 03:43:28;;;;;;;3.78;1.80;;;;;;;;;;5047334;28;20040;-57
2022/04/11 03:45:54;;;;;;;4.20;1.90;;;;;;;;;;5047073;28;20037;-57
2022/04/11 03:48:20;;;;;;;5.15;2.20;;;;;;;;;;5047619;28;20124;-56
2022/04/11 03:50:46;;;;;;;2.78;1.90;;;;;;;;;;5040974;28;20502;-57
2022/04/11 03:53:13;;;;;;;4.47;1.95;;;;;;;;;;5050744;28;20502;-58
2022/04/11 03:55:39;;;;;;;4.07;1.92;;;;;;;;;;5051311;28;20025;-56
2022/04/11 03:58:05;;;;;;;3.55;1.77;;;;;;;;;;5051131;28;20029;-56
2022/04/11 04:00:31;;;;;;;5.25;2.20;;;;;;;;;;5051231;28;20475;-58
2022/04/11 04:03:06;;;;;;;4.25;1.90;;;;;;;;;;5050000;28;20444;-58
2022/04/11 04:05:32;;;;;;;4.32;2.00;;;;;;;;;;5034108;28;20131;-57
2022/04/11 04:07:58;;;;;;;4.30;2.08;;;;;;;;;;5050813;28;20633;-58
2022/04/11 04:10:26;;;;;;;3.78;1.83;;;;;;;;;;5051191;28;20107;-58
2022/04/11 04:12:57;;;;;;;4.43;2.13;;;;;;;;;;5050311;28;20083;-58
2022/04/11 04:15:23;;;;;;;3.15;1.42;;;;;;;;;;5051392;28;20052;-57
2022/04/11 04:17:52;;;;;;;4.15;1.90;;;;;;;;;;5050305;28;20167;-57
2022/04/11 04:20:18;;;;;;;4.07;1.92;;;;;;;;;;5050940;28;20048;-57
2022/04/11 04:22:44;;;;;;;4.85;2.13;;;;;;;;;;5051208;28;20189;-57
2022/04/11 04:25:10;;;;;;;3.63;1.88;;;;;;;;;;5050832;28;20054;-56
2022/04/11 04:27:36;;;;;;;3.85;1.92;;;;;;;;;;5050631;28;20111;-57
2022/04/11 04:30:02;;;;;;;4.47;2.10;;;;;;;;;;5050693;28;20423;-58
2022/04/11 04:32:28;;;;;;;4.78;2.00;;;;;;;;;;5050240;28;20060;-57
2022/04/11 04:34:55;;;;;;;3.30;1.80;;;;;;;;;;5035702;28;20079;-57
2022/04/11 04:37:21;;;;;;;5.47;1.92;;;;;;;;;;5039642;28;20048;-57
2022/04/11 04:39:47;;;;;;;3.88;1.77;;;;;;;;;;5039484;28;20463;-56
2022/04/11 04:42:13;;;;;;;5.53;2.47;;;;;;;;;;5036699;28;20538;-58
2022/04/11 04:44:40;;;;;;;5.55;2.85;;;;;;;;;;5050062;28;20108;-58
2022/04/11 04:47:06;;;;;;;4.25;2.35;;;;;;;;;;5050237;28;20438;-57
2022/04/11 04:49:33;;;;;;;7.53;2.22;;;;;;;;;;5048923;28;20024;-58
2022/04/11 04:51:59;;;;;;;4.15;2.20;;;;;;;;;;5050835;28;20033;-56
2022/04/11 04:54:25;;;;;;;4.70;2.30;;;;;;;;;;5049638;28;20171;-57
2022/04/11 04:56:52;;;;;;;6.32;2.85;;;;;;;;;;5050638;28;20151;-57
2022/04/11 04:59:18;;;;;;;7.78;2.95;;;;;;;;;;5049341;28;20040;-57
2022/04/11 05:01:44;;;;;;;4.90;2.00;;;;;;;;;;5050050;28;20021;-57
2022/04/11 05:04:10;;;;;;;4.95;2.67;;;;;;;;;;5048022;28;20087;-58
2022/04/11 05:06:36;;;;;;;6.38;2.70;;;;;;;;;;5049775;28;20036;-56
2022/04/11 05:09:02;;;;;;;5.40;3.15;;;;;;;;;;5050115;28;20021;-58
2022/04/11 05:11:28;;;;;;;6.75;2.72;;;;;;;;;;5050087;28;20399;-58
2022/04/11 05:13:54;;;;;;;5.72;3.35;;;;;;;;;;5049471;28;20021;-58
2022/04/11 05:16:20;;;;;;;9.52;6.07;;;;;;;;;;5049686;28;20076;-57
2022/04/11 05:18:46;;;;;;;10.80;7.28;;;;;;;;;;5040386;28;20446;-57
2022/04/11 05:21:12;;;;;;;12.40;6.97;;;;;;;;;;5049908;28;20052;-56
2022/04/11 05:23:38;;;;;;;12.73;7.20;;;;;;;;;;5047089;28;20104;-58
2022/04/11 05:26:05;;;;;;;14.80;7.75;;;;;;;;;;5040128;28;20116;-54
2022/04/11 05:28:32;;;;;;;9.20;6.07;;;;;;;;;;5040923;28;20033;-55
2022/04/11 05:30:58;;;;;;;11.32;6.63;;;;;;;;;;5045582;28;20052;-56
2022/04/11 05:33:24;;;;;;;11.20;5.90;;;;;;;;;;5048477;28;20029;-55
2022/04/11 05:35:50;;;;;;;12.07;6.85;;;;;;;;;;5049387;28;20029;-55
2022/04/11 05:38:17;;;;;;;11.57;6.28;;;;;;;;;;5047731;28;20034;-56
2022/04/11 05:40:48;;;;;;;12.60;6.47;;;;;;;;;;5045834;28;20029;-56
2022/04/11 05:43:15;;;;;;;11.98;5.40;;;;;;;;;;5043799;28;20029;-57
2022/04/11 05:45:41;;;;;;;9.38;5.70;;;;;;;;;;5049930;28;20086;-58
2022/04/11 05:48:07;;;;;;;8.77;5.30;;;;;;;;;;5038785;28;20056;-57
2022/04/11 05:50:33;;;;;;;9.48;5.45;;;;;;;;;;5042798;28;20123;-56
2022/04/11 05:53:00;;;;;;;12.15;5.28;;;;;;;;;;5039696;28;20057;-56
2022/04/11 05:55:26;;;;;;;15.07;6.60;;;;;;;;;;5044022;28;20029;-54
2022/04/11 05:57:53;;;;;;;10.10;5.15;;;;;;;;;;5042132;28;20559;-56
2022/04/11 06:00:19;;;;;;;9.93;5.68;;;;;;;;;;5041529;28;20448;-58
2022/04/11 06:02:45;;;;;;;9.77;4.78;;;;;;;;;;5037697;28;20075;-57
2022/04/11 06:05:11;;;;;;;14.77;4.75;;;;;;;;;;5041677;28;20178;-57
2022/04/11 06:07:38;;;;;;;12.48;5.35;;;;;;;;;;5038696;28;20036;-56
2022/04/11 06:10:05;;;;;;;12.70;4.95;;;;;;;;;;5042193;28;20104;-56
2022/04/11 06:12:31;;;;;;;14.98;4.82;;;;;;;;;;5035350;28;20030;-53
2022/04/11 06:14:58;;;;;;;13.07;4.95;;;;;;;;;;5036606;28;20438;-56
2022/04/11 06:17:24;;;;;;;14.02;5.82;;;;;;;;;;5046112;28;20041;-56
2022/04/11 06:19:51;;;;;;;11.45;4.90;;;;;;;;;;5038714;28;20053;-56
2022/04/11 06:22:17;;;;;;;13.85;5.32;;;;;;;;;;5047325;28;20032;-56
2022/04/11 06:24:44;;;;;;;12.23;4.68;;;;;;;;;;5047959;28;20127;-56
2022/04/11 06:27:10;;;;;;;19.30;4.80;;;;;;;;;;5047566;28;20040;-56
2022/04/11 06:29:36;;;;;;;16.35;4.97;;;;;;;;;;5047137;28;20522;-56
2022/04/11 06:32:04;;;;;;;10.85;4.55;;;;;;;;;;5045519;28;20155;-54
2022/04/11 06:34:31;;;;;;;17.17;4.57;;;;;;;;;;5038486;28;20071;-56
2022/04/11 06:36:57;;;;;;;14.32;4.35;;;;;;;;;;5045686;28;20086;-56
2022/04/11 06:39:23;;;;;;;17.20;4.50;;;;;;;;;;5044846;28;20117;-54
2022/04/11 06:41:49;;;;;;;14.38;4.35;;;;;;;;;;5046449;28;20021;-55
2022/04/11 06:44:15;;;;;;;13.82;4.50;;;;;;;;;;5030416;28;20095;-55
2022/04/11 06:46:41;;;;;;;14.68;4.30;;;;;;;;;;5039790;28;20037;-56
2022/04/11 06:49:08;;;;;;;14.50;3.67;;;;;;;;;;5035664;28;20029;-57
2022/04/11 06:51:34;;;;;;;14.32;3.67;;;;;;;;;;5046127;28;20009;-55
2022/04/11 06:54:00;;;;;;;13.57;3.95;;;;;;;;;;5045985;28;20029;-56
2022/04/11 06:56:26;;;;;;;24.80;4.60;;;;;;;;;;5046360;28;20479;-57
2022/04/11 06:58:52;;;;;;;20.98;3.42;;;;;;;;;;5044043;28;20128;-55
2022/04/11 07:01:18;;;;;;;21.00;4.45;;;;;;;;;;5038845;28;20467;-57
2022/04/11 07:03:44;;;;;;;15.52;3.97;;;;;;;;;;5046668;28;20432;-58
2022/04/11 07:06:11;;;;;;;21.00;4.15;;;;;;;;;;5047612;28;20582;-60
2022/04/11 07:08:37;;;;;;;20.65;4.13;;;;;;;;;;5046492;28;20087;-58
2022/04/11 07:11:07;;;;;;;14.68;4.13;;;;;;;;;;5034489;28;20025;-57
2022/04/11 07:13:33;;;;;;;18.27;4.07;;;;;;;;;;5031711;28;20426;-57
2022/04/11 07:15:59;;;;;;;20.08;4.70;;;;;;;;;;5028817;28;20597;-57
2022/04/11 07:18:27;;;;;;;16.10;7.28;;;;;;;;;;5027275;28;20263;-54
2022/04/11 07:20:56;;;;;;;12.73;7.20;;;;;;;;;;5032488;28;20029;-57
2022/04/11 07:23:22;;;;;;;12.88;7.40;;;;;;;;;;5030431;28;20498;-55
2022/04/11 07:25:48;;;;;;;13.75;7.55;;;;;;;;;;5030110;28;20495;-58
2022/04/11 07:28:17;;;;;;;13.60;7.00;;;;;;;;;;5028093;28;20117;-55
2022/04/11 07:30:43;;;;;;;13.52;7.53;;;;;;;;;;5031724;28;20054;-57
2022/04/11 07:33:09;;;;;;;11.70;7.20;;;;;;;;;;5033026;28;20021;-57
2022/04/11 07:35:36;;;;;;;10.57;6.75;;;;;;;;;;5028684;28;20067;-59
2022/04/11 07:38:02;;;;;;;12.60;6.07;;;;;;;;;;5029390;28;20123;-59
2022/04/11 07:40:29;;;;;;;11.65;6.32;;;;;;;;;;5033323;28;20040;-60
2022/04/11 07:42:55;;;;;;;11.40;6.38;;;;;;;;;;5033291;28;20075;-59
2022/04/11 07:45:22;;;;;;;11.60;6.50;;;;;;;;;;5034512;28;20025;-60
2022/04/11 07:47:48;;;;;;;12.70;6.53;;;;;;;;;;5032249;28;20111;-60
2022/04/11 07:50:14;;;;;;;12.02;5.35;;;;;;;;;;5032317;28;20566;-58
2022/04/11 07:52:41;;;;;;;36.88;7.65;;;;;;;;;;5031796;28;20025;-56
2022/04/11 07:55:07;;;;;;;14.63;5.70;;;;;;;;;;5032752;28;20483;-59
2022/04/11 07:57:33;;;;;;;18.60;5.50;;;;;;;;;;5035811;28;20805;-59
2022/04/11 08:00:00;;;;;;;18.73;5.40;;;;;;;;;;5031524;28;20037;-59
2022/04/11 08:02:26;;;;;;;19.02;4.97;;;;;;;;;;5029008;28;20083;-57
2022/04/11 08:04:52;;;;;;;12.65;4.18;;;;;;;;;;5029779;28;20029;-59
2022/04/11 08:07:19;;;;;;;21.90;5.78;;;;;;;;;;5035238;28;20058;-57
2022/04/11 08:09:45;;;;;;;12.80;4.70;;;;;;;;;;5031625;28;20029;-57
2022/04/11 08:12:11;;;;;;;17.50;5.05;;;;;;;;;;5031360;28;20025;-57
2022/04/11 08:14:37;;;;;;;12.70;4.55;;;;;;;;;;5030567;28;20036;-59
2022/04/11 08:17:03;;;;;;;14.02;4.78;;;;;;;;;;5030791;28;21019;-59
2022/04/11 08:19:32;;;;;;;15.90;4.82;;;;;;;;;;5031901;28;20065;-59
2022/04/11 08:21:58;;;;;;;25.10;4.97;;;;;;;;;;5029257;28;20033;-59
2022/04/11 08:24:25;;;;;;;11.40;4.35;;;;;;;;;;5030282;28;20025;-59
2022/04/11 08:26:51;;;;;;;11.18;4.22;;;;;;;;;;5031145;28;20021;-60
2022/04/11 08:29:20;;;;;;;17.23;4.40;;;;;;;;;;5030319;28;20140;-59
2022/04/11 08:31:48;;;;;;;9.65;3.92;;;;;;;;;;5031739;28;20504;-59
2022/04/11 08:34:14;;;;;;;11.27;3.70;;;;;;;;;;5033006;28;20736;-60
2022/04/11 08:36:40;;;;;;;11.13;4.65;;;;;;;;;;5036766;28;20079;-58
2022/04/11 08:39:06;;;;;;;11.30;3.72;;;;;;;;;;5034550;28;20039;-57
2022/04/11 08:41:36;;;;;;;12.27;4.05;;;;;;;;;;5034850;28;20625;-57
2022/04/11 08:44:04;;;;;;;18.08;4.63;;;;;;;;;;5039442;28;20025;-56
2022/04/11 08:46:31;;;;;;;9.80;3.45;;;;;;;;;;5037317;28;20115;-54
2022/04/11 08:48:57;;;;;;;10.10;3.88;;;;;;;;;;5034927;28;20377;-55
2022/04/11 08:51:23;;;;;;;12.95;4.10;;;;;;;;;;5038614;28;20112;-57
2022/04/11 08:53:49;;;;;;;10.75;3.95;;;;;;;;;;5034083;28;20112;-60
2022/04/11 08:56:15;;;;;;;15.95;4.20;;;;;;;;;;5035114;28;20483;-59
2022/04/11 08:58:41;;;;;;;18.83;3.50;;;;;;;;;;5035697;28;20073;-60
2022/04/11 09:01:07;;;;;;;11.88;3.88;;;;;;;;;;5037165;28;20040;-59
2022/04/11 09:03:33;;;;;;;14.90;4.38;;;;;;;;;;5033632;28;20052;-58
2022/04/11 09:06:03;;;;;;;11.55;3.92;;;;;;;;;;5034655;28;20533;-60
2022/04/11 09:08:43;;;;;;;10.07;4.13;;;;;;;;;;5032013;28;20087;-59
2022/04/11 09:11:09;;;;;;;11.97;4.20;;;;;;;;;;5034144;28;20051;-59
2022/04/11 09:13:48;;;;;;;12.38;4.00;;;;;;;;;;5032730;28;20644;-57
2022/04/11 09:16:15;;;;;;;9.80;4.10;;;;;;;;;;5045079;28;20563;-57
2022/04/11 09:18:48;;;;;;;13.60;4.55;;;;;;;;;;5051153;28;20465;-58
2022/04/11 09:21:14;;;;;;;10.25;3.78;;;;;;;;;;5051108;28;20086;-57
2022/04/11 09:23:40;;;;;;;10.05;4.25;;;;;;;;;;5045726;28;20112;-57
2022/04/11 09:26:23;;;;;;;8.27;4.05;;;;;;;;;;5041766;28;20083;-59
2022/04/11 09:29:02;;;;;;;13.43;3.72;;;;;;;;;;5049373;28;20112;-59
2022/04/11 09:31:28;;;;;;;8.40;3.78;;;;;;;;;;5047570;28;20068;-57
2022/04/11 09:33:55;;;;;;;12.55;3.90;;;;;;;;;;5051097;28;20037;-57
2022/04/11 09:36:21;;;;;;;14.55;3.97;;;;;;;;;;5046650;28;20072;-57
2022/04/11 09:39:00;;;;;;;9.57;3.53;;;;;;;;;;5049447;28;20062;-58
2022/04/11 09:41:29;;;;;;;10.77;3.50;;;;;;;;;;5050934;28;20029;-57
2022/04/11 09:43:56;;;;;;;9.02;3.55;;;;;;;;;;5049854;28;20047;-58
2022/04/11 09:46:22;;;;;;;9.25;3.35;;;;;;;;;;5049913;28;20029;-58
2022/04/11 09:48:51;;;;;;;9.68;3.63;;;;;;;;;;5050103;28;20033;-58
2022/04/11 09:51:17;;;;;;;11.90;3.92;;;;;;;;;;5049680;28;20025;-59
2022/04/11 09:53:45;;;;;;;9.32;2.97;;;;;;;;;;5046559;28;20025;-58
2022/04/11 09:56:11;;;;;;;10.23;3.55;;;;;;;;;;5045546;28;20040;-59
2022/04/11 09:58:39;;;;;;;11.68;4.15;;;;;;;;;;5041553;28;20625;-58
2022/04/11 10:01:05;;;;;;;10.73;3.20;;;;;;;;;;5049158;28;20120;-58
2022/04/11 10:03:32;;;;;;;13.40;4.20;;;;;;;;;;5048665;28;20055;-59
2022/04/11 10:05:58;;;;;;;11.98;4.22;;;;;;;;;;5049636;28;20096;-58
2022/04/11 10:08:25;;;;;;;10.25;3.70;;;;;;;;;;5049669;28;20025;-58
2022/04/11 10:10:51;;;;;;;9.60;2.72;;;;;;;;;;5049099;28;20033;-59
2022/04/11 10:13:17;;;;;;;10.13;3.75;;;;;;;;;;5049955;28;20494;-59
2022/04/11 10:15:46;;;;;;;12.70;4.35;;;;;;;;;;5049914;28;20104;-59
2022/04/11 10:18:13;;;;;;;7.05;2.92;;;;;;;;;;5049519;28;20112;-58
2022/04/11 10:20:40;;;;;;;7.43;3.22;;;;;;;;;;5049860;28;20562;-59
2022/04/11 10:23:25;;;;;;;6.03;3.08;;;;;;;;;;5048544;28;20064;-58
2022/04/11 10:25:51;;;;;;;8.13;3.03;;;;;;;;;;5049928;28;20041;-59
2022/04/11 10:28:22;;;;;;;11.20;2.80;;;;;;;;;;5049743;28;20028;-59
2022/04/11 10:31:09;;;;;;;8.73;2.88;;;;;;;;;;5048918;28;20574;-59
2022/04/11 10:33:57;;;;;;;9.77;2.95;;;;;;;;;;5048886;28;20553;-59
2022/04/11 10:36:28;;;;;;;11.63;3.13;;;;;;;;;;5029011;28;20140;-59
2022/04/11 10:39:12;;;;;;;11.10;2.92;;;;;;;;;;5031495;28;20031;-58
2022/04/11 10:41:57;;;;;;;7.70;3.13;;;;;;;;;;5045973;28;20466;-59
2022/04/11 10:44:33;;;;;;;8.80;3.38;;;;;;;;;;5048625;28;20137;-59
2022/04/11 10:47:30;;;;;;;9.00;2.58;;;;;;;;;;5048985;28;20041;-59
2022/04/11 10:49:56;;;;;;;9.70;2.67;;;;;;;;;;5048329;28;20029;-58
2022/04/11 10:52:29;;;;;;;7.53;3.05;;;;;;;;;;5048882;28;20033;-59
2022/04/11 10:54:55;;;;;;;6.53;2.20;;;;;;;;;;5048223;28;20023;-59
2022/04/11 10:57:36;;;;;;;6.38;2.30;;;;;;;;;;5048286;28;20131;-59
2022/04/11 11:00:13;;;;;;;7.07;2.70;;;;;;;;;;5048727;28;20017;-58
2022/04/11 11:02:54;;;;;;;8.20;2.92;;;;;;;;;;5048452;28;20021;-58
2022/04/11 11:05:27;;;;;;;7.30;2.58;;;;;;;;;;5048089;28;20499;-59
2022/04/11 11:08:14;;;;;;;6.85;2.97;;;;;;;;;;5048531;28;20021;-59
2022/04/11 11:10:51;;;;;;;4.78;2.25;;;;;;;;;;5047969;28;20029;-58
2022/04/11 11:13:26;;;;;;;7.60;2.38;;;;;;;;;;5048345;28;20029;-58
2022/04/11 11:15:52;;;;;;;10.25;2.45;;;;;;;;;;5048299;28;20017;-59
2022/04/11 11:18:18;;;;;;;6.18;2.20;;;;;;;;;;5048358;28;20558;-59
2022/04/11 11:20:51;;;;;;;6.05;2.50;;;;;;;;;;5048245;28;20215;-59
2022/04/11 11:23:31;;;;;;;5.13;2.13;;;;;;;;;;5048074;28;20058;-59
2022/04/11 11:26:12;;;;;;;6.30;2.17;;;;;;;;;;5048240;28;20078;-59
2022/04/11 11:28:37;;;;;;;;;;;;;;;;;;5048590;28;20078;-58
2022/04/11 11:31:05;;;;;;;4.80;1.95;;;;;;;;;;5047825;28;19924;-59
2022/04/11 11:33:31;;;;;;;4.20;1.98;;;;;;;;;;5048018;28;20706;-59
2022/04/11 11:35:57;;;;;;;5.30;2.07;;;;;;;;;;5047550;28;20013;-59
2022/04/11 11:38:24;;;;;;;8.38;1.92;;;;;;;;;;5048213;28;20314;-59
2022/04/11 11:40:55;;;;;;;5.65;2.05;;;;;;;;;;5048367;28;20021;-59
2022/04/11 11:43:21;;;;;;;5.28;2.30;;;;;;;;;;5048137;28;20025;-59
2022/04/11 11:45:47;;;;;;;5.30;1.85;;;;;;;;;;5048002;28;20108;-58
2022/04/11 11:48:20;;;;;;;6.00;1.98;;;;;;;;;;5047966;28;20032;-59
2022/04/11 11:50:47;;;;;;;5.10;2.00;;;;;;;;;;5047567;28;20025;-58
2022/04/11 11:53:13;;;;;;;6.50;1.85;;;;;;;;;;5047875;28;20028;-58
2022/04/11 11:56:12;;;;;;;5.72;2.33;;;;;;;;;;5048006;28;20116;-57
2022/04/11 11:58:39;;;;;;;6.85;2.33;;;;;;;;;;5032500;28;20132;-59
2022/04/11 12:01:14;;;;;;;4.70;1.80;;;;;;;;;;5047801;28;20044;-58
2022/04/11 12:06:31;;;;;;;5.10;1.73;;;;;;;;;;5048171;28;20047;-59
2022/04/11 12:08:58;;;;;;;6.38;1.80;;;;;;;;;;5050052;28;20028;-59
2022/04/11 12:11:25;;;;;;;5.35;1.40;;;;;;;;;;5051691;28;20491;-58
2022/04/11 12:14:01;;;;;;;3.75;1.60;;;;;;;;;;5051562;28;20029;-60
2022/04/11 12:16:29;;;;;;;5.95;2.20;;;;;;;;;;5051704;28;20774;-58
2022/04/11 12:19:05;;;;;;;5.47;1.85;;;;;;;;;;5043905;28;20034;-58
2022/04/11 12:21:31;;;;;;;6.20;1.75;;;;;;;;;;5050759;28;20499;-59
2022/04/11 12:23:58;;;;;;;6.28;1.67;;;;;;;;;;5051535;28;20021;-59
2022/04/11 12:26:31;;;;;;;6.25;1.80;;;;;;;;;;5051466;28;20028;-59
2022/04/11 12:28:58;;;;;;;7.00;1.85;;;;;;;;;;5047139;28;20543;-58
2022/04/11 12:31:25;;;;;;;7.65;1.88;;;;;;;;;;5046417;28;20068;-58
2022/04/11 12:33:52;;;;;;;8.95;2.17;;;;;;;;;;5051218;28;20023;-58
2022/04/11 12:36:22;;;;;;;14.23;4.05;;;;;;;;;;5051128;28;20156;-59
2022/04/11 12:38:52;;;;;;;11.98;4.68;;;;;;;;;;5050845;28;20036;-59
2022/04/11 12:41:18;;;;;;;;;;;;;;;;;;5051078;28;20024;-58
2022/04/11 12:44:04;;;;;;;11.32;4.35;;;;;;;;;;5051282;28;20260;-59
2022/04/11 12:46:30;;;;;;;10.18;4.35;;;;;;;;;;5051917;28;20449;-58
2022/04/11 12:48:59;;;;;;;18.55;5.35;;;;;;;;;;5051767;28;20112;-58
2022/04/11 12:51:28;;;;;;;9.50;4.22;;;;;;;;;;5050926;28;20030;-59
2022/04/11 12:54:01;;;;;;;8.17;4.17;;;;;;;;;;5052274;28;20025;-60
2022/04/11 12:56:33;;;;;;;12.05;4.10;;;;;;;;;;5051590;28;20036;-58
2022/04/11 12:58:59;;;;;;;8.90;4.50;;;;;;;;;;5051817;28;20033;-59
2022/04/11 13:01:25;;;;;;;12.45;3.95;;;;;;;;;;5051202;28;20494;-60
2022/04/11 13:03:51;;;;;;;10.15;4.05;;;;;;;;;;5051294;28;20029;-60
2022/04/11 13:06:17;;;;;;;8.65;4.20;;;;;;;;;;5051765;28;20032;-59
2022/04/11 13:08:43;;;;;;;11.13;4.40;;;;;;;;;;5051119;28;20104;-59
2022/04/11 13:11:09;;;;;;;6.40;3.83;;;;;;;;;;5051557;28;20021;-59
2022/04/11 13:13:35;;;;;;;8.23;4.30;;;;;;;;;;5051452;28;20060;-59
2022/04/11 13:18:46;;;;;;;10.13;3.95;;;;;;;;;;5050177;28;20060;-58
2022/04/11 13:21:13;;;;;;;12.70;4.50;;;;;;;;;;5050596;28;20021;-59
2022/04/11 13:23:40;;;;;;;12.70;4.43;;;;;;;;;;5050922;28;20701;-59
2022/04/11 13:26:06;;;;;;;7.40;3.38;;;;;;;;;;5050480;28;20039;-58
2022/04/11 13:28:32;;;;;;;6.65;3.17;;;;;;;;;;5049960;28;20394;-55
2022/04/11 13:30:59;;;;;;;8.43;3.80;;;;;;;;;;5050686;28;20427;-59
2022/04/11 13:33:25;;;;;;;13.30;3.83;;;;;;;;;;5050472;28;20447;-59
2022/04/11 13:35:51;;;;;;;6.93;3.58;;;;;;;;;;5050470;28;20098;-58
2022/04/11 13:38:17;;;;;;;11.18;4.38;;;;;;;;;;5051246;28;20040;-59
2022/04/11 13:40:43;;;;;;;8.77;4.25;;;;;;;;;;5041662;28;20528;-57
2022/04/11 13:43:09;;;;;;;10.98;5.20;;;;;;;;;;5049959;28;20040;-59
2022/04/11 13:45:35;;;;;;;10.00;5.28;;;;;;;;;;5050453;28;20475;-59
2022/04/11 13:48:02;;;;;;;8.55;4.55;;;;;;;;;;5050315;28;20049;-56
2022/04/11 13:50:28;;;;;;;8.98;4.65;;;;;;;;;;5047076;28;20708;-58
2022/04/11 13:52:54;;;;;;;8.35;4.40;;;;;;;;;;5050331;28;20051;-59
2022/04/11 13:55:21;;;;;;;10.07;5.30;;;;;;;;;;5050126;28;20156;-59
2022/04/11 13:57:46;;;;;;;7.43;4.70;;;;;;;;;;5050462;28;20037;-59
2022/04/11 14:00:13;;;;;;;11.15;4.82;;;;;;;;;;5049307;28;20032;-59
2022/04/11 14:02:39;;;;;;;8.88;5.00;;;;;;;;;;5048269;28;20020;-58
2022/04/11 14:05:05;;;;;;;10.30;5.25;;;;;;;;;;5050618;28;20190;-56
2022/04/11 14:07:31;;;;;;;9.13;5.20;;;;;;;;;;5046151;28;20108;-58
2022/04/11 14:09:57;;;;;;;12.05;4.70;;;;;;;;;;5048359;28;20193;-59
2022/04/11 14:12:23;;;;;;;9.20;4.53;;;;;;;;;;5050081;28;20036;-58
2022/04/11 14:14:49;;;;;;;10.02;5.53;;;;;;;;;;5050191;28;20028;-59
2022/04/11 14:17:15;;;;;;;11.07;5.05;;;;;;;;;;5049665;28;20566;-58
2022/04/11 14:19:41;;;;;;;9.05;4.68;;;;;;;;;;5049531;28;20021;-59
2022/04/11 14:22:07;;;;;;;10.20;4.75;;;;;;;;;;5050622;28;20032;-58
2022/04/11 14:24:33;;;;;;;7.50;4.43;;;;;;;;;;5050132;28;20872;-59
2022/04/11 14:26:59;;;;;;;10.95;4.50;;;;;;;;;;5049878;28;20035;-58
2022/04/11 14:29:26;;;;;;;9.70;4.35;;;;;;;;;;5050152;28;20025;-58
2022/04/11 14:31:52;;;;;;;12.13;4.70;;;;;;;;;;5035938;28;20518;-61
2022/04/11 14:34:18;;;;;;;10.80;3.78;;;;;;;;;;5049938;28;20051;-59
2022/04/11 14:36:44;;;;;;;9.65;4.57;;;;;;;;;;5050006;28;20100;-58
2022/04/11 14:39:11;;;;;;;8.23;4.30;;;;;;;;;;5044588;28;20025;-59
2022/04/11 14:41:38;;;;;;;8.15;4.80;;;;;;;;;;5047581;28;20032;-58
2022/04/11 14:44:04;;;;;;;11.02;4.88;;;;;;;;;;5046382;28;20030;-55
2022/04/11 14:46:32;;;;;;;9.93;4.68;;;;;;;;;;5041133;28;20143;-58